Time;durP1;ratioP1;P1;durP2;ratioP2;P2;SDS_P1;SDS_P2;PMS_P1;PMS_P2;Temp;Humidity;BMP_temperature;BMP_pressure;BME280_temperature;BME280_humidity;BME280_pressure;Samples;Min_cycle;Max_cycle;Signal;HPM_P1;HPM_P2
2021/03/17 00:01:49;;;;;;;;;;;;;;;20.43;35.89;99139.41;5059091;28;940;-48
2021/03/17 00:04:33;;;;;;;;;;;;;;;20.45;35.83;99145.38;5058907;28;585;-56
2021/03/17 00:07:17;;;;;;;;;;;;;;;20.46;35.51;99135.94;5059265;28;590;-46
2021/03/17 00:10:01;;;;;;;;;;;;;;;20.47;35.72;99131.25;5059202;28;1902;-47
2021/03/17 00:12:46;;;;;;;;;;;;;;;20.20;36.08;99129.88;5058469;28;1060;-48
2021/03/17 00:15:31;;;;;;;;;;;;;;;20.14;36.37;99129.28;5059158;28;653;-56
2021/03/17 00:18:15;;;;;;;;;;;;;;;20.16;36.52;99133.31;5059822;28;935;-47
2021/03/17 00:21:00;;;;;;;;;;;;;;;20.27;36.20;99132.88;5078471;28;602;-54
2021/03/17 00:23:43;;;;;;;;;;;;;;;20.24;36.16;99131.59;5079342;28;653;-48
2021/03/17 00:26:27;;;;;;;;;;;;;;;20.37;35.88;99140.75;5078706;28;589;-48
2021/03/17 00:29:11;;;;;;;;;;;;;;;20.02;36.81;99129.19;5078979;28;1909;-54
2021/03/17 00:31:56;;;;;;;;;;;;;;;19.89;36.97;99120.06;5073693;28;1120;-50
2021/03/17 00:34:39;;;;;;;;;;;;;;;19.87;36.95;99114.09;5058268;28;706;-46
2021/03/17 00:37:24;;;;;;;;;;;;;;;19.98;36.73;99116.09;5058795;28;610;-54
2021/03/17 00:40:08;;;;;;;;;;;;;;;19.96;36.62;99106.53;5058705;28;602;-45
2021/03/17 00:42:52;;;;;;;;;;;;;;;19.90;36.86;99111.44;5058092;28;614;-45
2021/03/17 00:45:36;;;;;;;;;;;;;;;19.85;36.77;99099.81;5057901;28;649;-56
2021/03/17 00:48:22;;;;;;;;;;;;;;;19.71;37.20;99105.56;5074624;28;996;-45
2021/03/17 00:50:55;;;;;;;;;;;;;;;19.86;37.05;99106.94;5077964;28;1972;-55
2021/03/17 00:53:26;;;;;;;;;;;;;;;19.81;36.87;99103.25;5078291;28;614;-53
2021/03/17 00:55:52;;;;;;;;;;;;;;;19.89;36.66;99098.00;5060666;28;1265;-47
2021/03/17 00:58:23;;;;;;;;;;;;;;;19.66;37.39;99098.28;5060419;28;1289;-48
2021/03/17 01:00:48;;;;;;;;;;;;;;;19.51;37.78;99096.13;5078260;28;723;-46
2021/03/17 01:03:14;;;;;;;;;;;;;;;19.54;37.55;99100.97;5062215;28;966;-51
2021/03/17 01:05:39;;;;;;;;;;;;;;;19.61;37.45;99099.28;5057854;28;893;-46
2021/03/17 01:08:05;;;;;;;;;;;;;;;19.60;37.47;99094.09;5058144;28;859;-50
2021/03/17 01:10:32;;;;;;;;;;;;;;;19.71;37.25;99089.81;5058071;28;1914;-46
2021/03/17 01:12:57;;;;;;;;;;;;;;;19.93;36.67;99091.44;5074003;28;1128;-46
2021/03/17 01:15:23;;;;;;;;;;;;;;;19.98;36.74;99088.50;5060476;28;819;-46
2021/03/17 01:17:48;;;;;;;;;;;;;;;20.11;36.11;99089.34;5065772;28;1062;-46
2021/03/17 01:20:15;;;;;;;;;;;;;;;20.11;36.39;99091.31;5057800;28;811;-47
2021/03/17 01:22:40;;;;;;;;;;;;;;;20.08;36.30;99092.78;5057684;28;740;-50
2021/03/17 01:25:09;;;;;;;;;;;;;;;20.27;36.11;99080.44;5039843;28;1393;-48
2021/03/17 01:27:35;;;;;;;;;;;;;;;20.29;35.93;99080.94;5057502;28;817;-53
2021/03/17 01:30:01;;;;;;;;;;;;;;;20.25;35.96;99077.22;5057560;28;1926;-47
2021/03/17 01:32:26;;;;;;;;;;;;;;;20.31;35.77;99079.44;5047820;28;997;-45
2021/03/17 01:34:52;;;;;;;;;;;;;;;20.28;35.92;99071.81;5077199;28;820;-46
2021/03/17 01:37:17;;;;;;;;;;;;;;;20.23;35.87;99077.56;5077428;28;887;-46
2021/03/17 01:39:43;;;;;;;;;;;;;;;20.27;36.04;99070.22;5077701;28;807;-51
2021/03/17 01:42:08;;;;;;;;;;;;;;;20.33;35.85;99073.59;5077062;28;779;-47
2021/03/17 01:44:34;;;;;;;;;;;;;;;20.36;35.55;99075.66;5077346;28;760;-54
2021/03/17 01:46:59;;;;;;;;;;;;;;;20.37;35.59;99076.44;5071694;28;1053;-48
2021/03/17 01:49:25;;;;;;;;;;;;;;;20.34;35.85;99073.22;5056889;28;1964;-48
2021/03/17 01:51:50;;;;;;;;;;;;;;;20.30;35.87;99071.47;5057108;28;852;-45
2021/03/17 01:54:15;;;;;;;;;;;;;;;20.38;35.76;99076.09;5057466;28;887;-55
2021/03/17 01:56:41;;;;;;;;;;;;;;;20.34;35.80;99072.41;5056878;28;748;-47
2021/03/17 01:59:07;;;;;;;;;;;;;;;20.35;35.91;99069.31;5057045;28;824;-46
2021/03/17 02:01:32;;;;;;;;;;;;;;;20.27;36.10;99072.16;5040259;28;1076;-47
2021/03/17 02:03:57;;;;;;;;;;;;;;;20.34;35.91;99080.69;5076448;28;839;-45
2021/03/17 02:06:23;;;;;;;;;;;;;;;20.06;36.43;99067.47;5076609;28;859;-44
2021/03/17 02:08:48;;;;;;;;;;;;;;;20.09;36.48;99072.34;5076938;28;740;-46
2021/03/17 02:11:14;;;;;;;;;;;;;;;20.17;36.12;99070.63;5074548;28;1914;-48
2021/03/17 02:13:39;;;;;;;;;;;;;;;20.10;36.18;99076.69;5056982;28;717;-47
2021/03/17 02:16:18;;;;;;;;;;;;;;;19.96;36.59;99078.94;5057475;28;782;-48
2021/03/17 02:18:43;;;;;;;;;;;;;;;20.08;36.59;99070.72;5076075;28;990;-47
2021/03/17 02:21:15;;;;;;;;;;;;;;;20.05;36.21;99079.69;5076526;28;835;-49
2021/03/17 02:23:47;;;;;;;;;;;;;;;19.89;36.59;99073.16;5076774;28;804;-53
2021/03/17 02:26:31;;;;;;;;;;;;;;;19.85;36.99;99077.75;5076370;28;780;-48
2021/03/17 02:28:59;;;;;;;;;;;;;;;20.00;36.54;99074.38;5076903;28;1913;-49
2021/03/17 02:31:43;;;;;;;;;;;;;;;20.05;36.52;99071.41;5075953;28;963;-50
2021/03/17 02:34:09;;;;;;;;;;;;;;;19.82;36.87;99063.50;5056081;28;804;-45
2021/03/17 02:36:46;;;;;;;;;;;;;;;19.79;36.78;99066.91;5038914;28;812;-47
2021/03/17 02:39:11;;;;;;;;;;;;;;;19.85;36.58;99074.97;5038612;28;821;-45
2021/03/17 02:41:38;;;;;;;;;;;;;;;19.78;36.84;99070.78;5055928;28;838;-45
2021/03/17 02:44:04;;;;;;;;;;;;;;;19.76;36.80;99064.78;5038793;28;851;-54
2021/03/17 02:46:29;;;;;;;;;;;;;;;19.81;36.68;99072.06;5057499;28;1019;-46
2021/03/17 02:48:57;;;;;;;;;;;;;;;19.71;37.21;99069.69;5075796;28;1975;-49
2021/03/17 02:51:24;;;;;;;;;;;;;;;19.86;36.93;99065.56;5076614;28;827;-45
2021/03/17 02:53:49;;;;;;;;;;;;;;;19.73;36.93;99071.00;5058330;28;838;-45
2021/03/17 02:56:15;;;;;;;;;;;;;;;19.70;37.10;99070.84;5075849;28;795;-46
2021/03/17 02:58:44;;;;;;;;;;;;;;;19.79;36.86;99066.91;5076765;28;815;-46
2021/03/17 03:01:12;;;;;;;;;;;;;;;19.59;37.17;99068.50;5058407;28;840;-46
2021/03/17 03:03:37;;;;;;;;;;;;;;;19.64;36.92;99075.75;5039347;28;963;-55
2021/03/17 03:06:03;;;;;;;;;;;;;;;19.63;37.23;99071.41;5038189;28;880;-46
2021/03/17 03:08:28;;;;;;;;;;;;;;;19.44;37.50;99066.34;5056228;28;780;-45
2021/03/17 03:10:56;;;;;;;;;;;;;;;19.61;37.32;99077.22;5055836;28;1918;-44
2021/03/17 03:13:25;;;;;;;;;;;;;;;19.47;37.48;99079.44;5057463;28;1232;-45
2021/03/17 03:15:51;;;;;;;;;;;;;;;19.51;37.56;99079.59;5076164;28;744;-44
2021/03/17 03:18:17;;;;;;;;;;;;;;;19.43;37.56;99082.06;5044905;28;1023;-47
2021/03/17 03:20:42;;;;;;;;;;;;;;;19.37;37.68;99077.88;5042629;28;787;-49
2021/03/17 03:23:07;;;;;;;;;;;;;;;19.45;37.35;99077.03;5041830;28;916;-49
2021/03/17 03:25:33;;;;;;;;;;;;;;;19.48;37.20;99073.59;5059735;28;765;-45
2021/03/17 03:28:10;;;;;;;;;;;;;;;19.50;37.32;99073.25;5042584;28;753;-46
2021/03/17 03:30:36;;;;;;;;;;;;;;;19.35;37.51;99071.91;5043580;28;1902;-57
2021/03/17 03:33:01;;;;;;;;;;;;;;;19.32;37.61;99072.56;5054811;28;1193;-57
2021/03/17 03:35:27;;;;;;;;;;;;;;;19.53;37.38;99066.25;5062180;28;787;-48
2021/03/17 03:37:52;;;;;;;;;;;;;;;19.36;37.56;99070.75;5079608;28;784;-45
2021/03/17 03:40:19;;;;;;;;;;;;;;;19.39;37.69;99066.53;5079768;28;740;-47
2021/03/17 03:42:44;;;;;;;;;;;;;;;19.33;37.53;99063.16;5079697;28;787;-54
2021/03/17 03:45:11;;;;;;;;;;;;;;;19.44;37.62;99077.34;5079466;28;796;-49
2021/03/17 03:47:36;;;;;;;;;;;;;;;19.51;37.09;99074.06;5068714;28;1073;-53
2021/03/17 03:50:02;;;;;;;;;;;;;;;19.65;36.95;99069.09;5041786;28;1906;-51
2021/03/17 03:52:29;;;;;;;;;;;;;;;19.48;37.05;99070.84;5059511;28;923;-45
2021/03/17 03:54:59;;;;;;;;;;;;;;;19.40;37.60;99068.94;5059219;28;760;-55
2021/03/17 03:57:28;;;;;;;;;;;;;;;19.47;37.10;99069.25;5041016;28;1329;-55
2021/03/17 03:59:55;;;;;;;;;;;;;;;19.15;37.91;99071.53;5059208;28;780;-54
2021/03/17 04:02:25;;;;;;;;;;;;;;;19.43;37.34;99071.06;5048982;28;1027;-46
2021/03/17 04:04:51;;;;;;;;;;;;;;;20.25;35.77;99063.44;5079308;28;724;-44
2021/03/17 04:07:16;;;;;;;;;;;;;;;19.95;36.23;99058.84;5079205;28;784;-56
2021/03/17 04:09:45;;;;;;;;;;;;;;;19.83;36.60;99059.56;5078830;28;1914;-46
2021/03/17 04:12:11;;;;;;;;;;;;;;;19.59;36.82;99057.47;5051333;28;1269;-53
2021/03/17 04:14:36;;;;;;;;;;;;;;;19.16;38.14;99058.56;5041630;28;760;-58
2021/03/17 04:17:05;;;;;;;;;;;;;;;20.11;36.13;99060.97;5041074;28;968;-49
2021/03/17 04:19:30;;;;;;;;;;;;;;;20.06;35.91;99064.72;5059055;28;748;-53
2021/03/17 04:21:56;;;;;;;;;;;;;;;19.84;36.67;99063.16;5058807;28;894;-56
2021/03/17 04:24:21;;;;;;;;;;;;;;;19.63;36.78;99058.41;5023915;28;1073;-57
2021/03/17 04:26:46;;;;;;;;;;;;;;;19.18;38.08;99066.47;5041084;28;733;-53
2021/03/17 04:29:12;;;;;;;;;;;;;;;19.36;37.76;99065.22;5040000;28;1987;-58
2021/03/17 04:31:37;;;;;;;;;;;;;;;20.32;35.80;99069.19;5042368;28;973;-50
2021/03/17 04:34:03;;;;;;;;;;;;;;;19.87;36.47;99072.72;5079128;28;787;-53
2021/03/17 04:36:28;;;;;;;;;;;;;;;19.93;36.23;99074.09;5060891;28;736;-49
2021/03/17 04:38:54;;;;;;;;;;;;;;;19.51;36.98;99074.88;5060551;28;755;-59
2021/03/17 04:41:19;;;;;;;;;;;;;;;19.22;37.63;99068.22;5060654;28;795;-59
2021/03/17 04:43:45;;;;;;;;;;;;;;;19.51;37.18;99068.56;5060718;28;931;-46
2021/03/17 04:46:11;;;;;;;;;;;;;;;20.31;35.61;99065.66;5060397;28;907;-59
2021/03/17 04:48:41;;;;;;;;;;;;;;;19.89;36.54;99067.66;5041727;28;951;-59
2021/03/17 04:51:06;;;;;;;;;;;;;;;20.00;36.31;99063.31;5040604;28;1983;-55
2021/03/17 04:53:32;;;;;;;;;;;;;;;19.52;37.09;99062.72;5058446;28;1502;-47
2021/03/17 04:55:57;;;;;;;;;;;;;;;19.13;37.79;99065.53;5078944;28;759;-55
2021/03/17 04:58:23;;;;;;;;;;;;;;;19.35;37.63;99066.41;5059245;28;1478;-60
2021/03/17 05:00:49;;;;;;;;;;;;;;;20.32;35.73;99067.22;5059649;28;808;-59
2021/03/17 05:03:14;;;;;;;;;;;;;;;19.91;36.21;99076.38;5062817;28;955;-58
2021/03/17 05:05:40;;;;;;;;;;;;;;;19.93;36.40;99068.59;5040815;28;752;-62
2021/03/17 05:08:06;;;;;;;;;;;;;;;19.33;37.64;99074.19;5057803;28;724;-58
2021/03/17 05:10:32;;;;;;;;;;;;;;;18.93;38.39;99069.84;5058329;28;1914;-58
2021/03/17 05:12:57;;;;;;;;;;;;;;;19.86;36.47;99071.09;5056406;28;1137;-55
2021/03/17 05:15:23;;;;;;;;;;;;;;;20.10;35.89;99071.19;5077546;28;800;-54
2021/03/17 05:17:48;;;;;;;;;;;;;;;19.82;36.69;99074.53;5076970;28;958;-57
2021/03/17 05:20:15;;;;;;;;;;;;;;;19.73;36.69;99075.72;5060492;28;836;-50
2021/03/17 05:22:44;;;;;;;;;;;;;;;19.25;37.77;99088.81;5077155;28;808;-57
2021/03/17 05:25:09;;;;;;;;;;;;;;;19.77;36.92;99077.44;5059984;28;839;-57
2021/03/17 05:27:36;;;;;;;;;;;;;;;20.44;35.29;99074.75;5078072;28;779;-47
2021/03/17 05:30:05;;;;;;;;;;;;;;;20.05;36.08;99074.16;5059163;28;1992;-47
2021/03/17 05:32:31;;;;;;;;;;;;;;;20.02;36.10;99085.88;5067674;28;1100;-54
2021/03/17 05:34:57;;;;;;;;;;;;;;;19.45;37.34;99082.53;5058305;28;790;-45
2021/03/17 05:37:23;;;;;;;;;;;;;;;19.40;37.46;99079.97;5038717;28;894;-54
2021/03/17 05:39:49;;;;;;;;;;;;;;;20.18;36.13;99081.34;5056664;28;725;-52
2021/03/17 05:42:14;;;;;;;;;;;;;;;19.99;36.16;99086.53;5039576;28;817;-48
2021/03/17 05:44:39;;;;;;;;;;;;;;;19.84;36.27;99071.44;5057115;28;688;-49
2021/03/17 05:47:06;;;;;;;;;;;;;;;19.55;36.94;99080.53;5039518;28;1209;-46
2021/03/17 05:49:32;;;;;;;;;;;;;;;19.02;38.16;99086.34;5057228;28;1914;-46
2021/03/17 05:51:57;;;;;;;;;;;;;;;19.89;36.74;99084.19;5039516;28;849;-62
2021/03/17 05:54:23;;;;;;;;;;;;;;;20.54;35.11;99084.56;5039140;28;991;-53
2021/03/17 05:56:50;;;;;;;;;;;;;;;19.93;36.38;99079.63;5039330;28;756;-56
2021/03/17 05:59:15;;;;;;;;;;;;;;;19.80;36.68;99095.31;5039336;28;776;-58
2021/03/17 06:01:41;;;;;;;;;;;;;;;19.29;37.69;99095.28;5024121;28;1155;-45
2021/03/17 06:04:06;;;;;;;;;;;;;;;18.92;38.59;99092.22;5055075;28;1222;-50
2021/03/17 06:06:32;;;;;;;;;;;;;;;19.76;37.00;99097.09;5026538;28;1099;-48
2021/03/17 06:08:58;;;;;;;;;;;;;;;20.27;35.81;99100.59;5076638;28;855;-44
2021/03/17 06:11:24;;;;;;;;;;;;;;;19.98;36.48;99095.97;5055606;28;1175;-47
2021/03/17 06:13:49;;;;;;;;;;;;;;;19.86;36.66;99101.44;5056981;28;760;-59
2021/03/17 06:16:16;;;;;;;;;;;;;;;19.39;37.42;99100.41;5056620;28;792;-47
2021/03/17 06:18:42;;;;;;;;;;;;;;;19.11;38.24;99095.38;5056777;28;979;-58
2021/03/17 06:21:07;;;;;;;;;;;;;;;20.13;36.17;99095.34;5039070;28;590;-47
2021/03/17 06:23:33;;;;;;;;;;;;;;;20.20;35.71;99094.00;5056470;28;796;-46
2021/03/17 06:25:58;;;;;;;;;;;;;;;19.99;36.37;99103.09;5056847;28;762;-49
2021/03/17 06:28:24;;;;;;;;;;;;;;;19.66;36.90;99107.38;5056806;28;840;-48
2021/03/17 06:30:52;;;;;;;;;;;;;;;19.17;38.05;99109.78;5038788;28;1965;-47
2021/03/17 06:33:17;;;;;;;;;;;;;;;19.78;37.00;99101.13;5056720;28;1021;-45
2021/03/17 06:35:43;;;;;;;;;;;;;;;20.43;35.37;99103.50;5056615;28;728;-43
2021/03/17 06:38:19;;;;;;;;;;;;;;;20.04;36.21;99107.63;5056539;28;756;-45
2021/03/17 06:40:45;;;;;;;;;;;;;;;19.95;36.45;99110.41;5056402;28;815;-43
2021/03/17 06:43:11;;;;;;;;;;;;;;;19.41;37.46;99106.38;5038883;28;1433;-46
2021/03/17 06:45:40;;;;;;;;;;;;;;;19.09;38.12;99116.13;5037986;28;861;-47
2021/03/17 06:48:24;;;;;;;;;;;;;;;19.73;36.98;99112.34;5056599;28;1003;-46
2021/03/17 06:51:03;;;;;;;;;;;;;;;20.47;35.43;99115.47;5056359;28;1968;-53
2021/03/17 06:53:59;;;;;;;;;;;;;;;19.97;36.28;99108.94;5087717;28;861;-44
2021/03/17 06:56:28;;;;;;;;;;;;;;;19.75;36.74;99112.81;5078615;28;1495;-43
2021/03/17 06:58:54;;;;;;;;;;;;;;;19.28;37.73;99113.75;5096263;28;755;-43
2021/03/17 07:01:23;;;;;;;;;;;;;;;18.99;38.23;99109.03;5096171;28;803;-55
2021/03/17 07:03:52;;;;;;;;;;;;;;;20.03;36.18;99115.06;5075694;28;1032;-42
2021/03/17 07:06:17;;;;;;;;;;;;;;;20.63;34.85;99112.06;5075959;28;486;-51
2021/03/17 07:08:43;;;;;;;;;;;;;;;20.98;34.41;99104.22;5076102;28;843;-43
2021/03/17 07:11:09;;;;;;;;;;;;;;;20.46;35.50;99107.53;5056738;28;1984;-45
2021/03/17 07:13:35;;;;;;;;;;;;;;;20.13;36.07;99111.91;5055791;28;795;-50
2021/03/17 07:16:00;;;;;;;;;;;;;;;19.80;36.51;99109.91;5037935;28;806;-45
2021/03/17 07:18:27;;;;;;;;;;;;;;;19.42;37.52;99110.78;5056505;28;1010;-43
2021/03/17 07:20:59;;;;;;;;;;;;;;;19.15;38.21;99112.03;5056061;28;825;-45
2021/03/17 07:23:45;;;;;;;;;;;;;;;19.54;37.38;99103.72;5073485;28;833;-58
2021/03/17 07:26:16;;;;;;;;;;;;;;;19.76;36.80;99108.91;5089250;28;2100;-45
2021/03/17 07:29:02;;;;;;;;;;;;;;;19.46;37.41;99100.69;5095807;28;740;-49
2021/03/17 07:31:29;;;;;;;;;;;;;;;19.13;37.82;99100.56;5081515;28;1192;-48
2021/03/17 07:33:55;;;;;;;;;;;;;;;19.28;37.87;99110.22;5075933;28;831;-51
2021/03/17 07:36:31;;;;;;;;;;;;;;;19.49;37.42;99104.75;5075446;28;567;-47
2021/03/17 07:38:57;;;;;;;;;;;;;;;19.57;37.27;99105.81;5076041;28;736;-47
2021/03/17 07:41:23;;;;;;;;;;;;;;;19.22;37.67;99104.06;5076343;28;839;-50
2021/03/17 07:43:50;;;;;;;;;;;;;;;18.98;38.34;99110.16;5075449;28;816;-45
2021/03/17 07:46:15;;;;;;;;;;;;;;;19.03;38.28;99104.47;5041506;28;1139;-47
2021/03/17 07:48:41;;;;;;;;;;;;;;;19.27;37.81;99103.06;5056916;28;963;-48
2021/03/17 07:51:06;;;;;;;;;;;;;;;19.39;37.42;99105.94;5075256;28;1906;-48
2021/03/17 07:53:32;;;;;;;;;;;;;;;19.46;37.40;99099.88;5057740;28;934;-56
2021/03/17 07:55:57;;;;;;;;;;;;;;;19.12;38.02;99113.50;5057965;28;724;-47
2021/03/17 07:58:23;;;;;;;;;;;;;;;19.49;37.43;99110.25;5075656;28;756;-46
2021/03/17 08:00:48;;;;;;;;;;;;;;;20.21;35.95;99112.16;5057803;28;886;-45
2021/03/17 08:03:14;;;;;;;;;;;;;;;20.22;35.64;99100.00;5076825;28;962;-46
2021/03/17 08:05:40;;;;;;;;;;;;;;;19.94;36.19;99108.81;5078760;28;843;-47
2021/03/17 08:08:06;;;;;;;;;;;;;;;19.73;36.52;99111.56;5061154;28;1234;-46
2021/03/17 08:10:31;;;;;;;;;;;;;;;19.05;38.11;99113.22;5078973;28;1963;-46
2021/03/17 08:12:57;;;;;;;;;;;;;;;19.88;36.49;99101.88;5062417;28;1103;-47
2021/03/17 08:15:22;;;;;;;;;;;;;;;20.45;35.12;99105.91;5041672;28;816;-48
2021/03/17 08:17:48;;;;;;;;;;;;;;;19.93;36.36;99108.00;5041264;28;984;-45
2021/03/17 08:20:14;;;;;;;;;;;;;;;19.91;36.50;99102.03;5058613;28;756;-53
2021/03/17 08:22:40;;;;;;;;;;;;;;;19.31;37.57;99104.03;5058935;28;839;-45
2021/03/17 08:25:06;;;;;;;;;;;;;;;19.20;37.79;99102.78;5041666;28;771;-47
2021/03/17 08:27:32;;;;;;;;;;;;;;;20.20;35.95;99107.78;5058657;28;796;-47
2021/03/17 08:30:07;;;;;;;;;;;;;;;20.12;35.72;99102.00;5027239;28;1910;-62
2021/03/17 08:32:51;;;;;;;;;;;;;;;19.91;36.50;99107.53;5058572;28;996;-47
2021/03/17 08:35:16;;;;;;;;;;;;;;;19.59;36.95;99101.59;5058361;28;835;-46
2021/03/17 08:37:54;;;;;;;;;;;;;;;19.21;37.83;99105.22;5058624;28;851;-58
2021/03/17 08:40:29;;;;;;;;;;;;;;;19.99;36.41;99105.84;5058473;28;748;-47
2021/03/17 08:42:55;;;;;;;;;;;;;;;20.28;35.45;99096.66;5058318;28;772;-53
2021/03/17 08:45:21;;;;;;;;;;;;;;;19.98;36.23;99104.25;5058771;28;736;-48
2021/03/17 08:47:46;;;;;;;;;;;;;;;19.74;36.77;99111.22;5058532;28;967;-46
2021/03/17 08:50:15;;;;;;;;;;;;;;;19.22;37.84;99111.53;5058270;28;1965;-49
2021/03/17 08:52:44;;;;;;;;;;;;;;;19.73;36.76;99106.03;5058367;28;724;-44
2021/03/17 08:55:19;;;;;;;;;;;;;;;20.50;35.13;99111.25;5058265;28;791;-46
2021/03/17 08:57:49;;;;;;;;;;;;;;;20.08;36.17;99119.59;5057967;28;779;-48
2021/03/17 09:00:14;;;;;;;;;;;;;;;20.03;36.14;99111.50;5040201;28;878;-63
2021/03/17 09:02:40;;;;;;;;;;;;;;;19.41;37.49;99109.16;5040514;28;1015;-45
2021/03/17 09:05:06;;;;;;;;;;;;;;;18.85;38.64;99108.41;5057933;28;768;-61
2021/03/17 09:07:32;;;;;;;;;;;;;;;20.01;36.28;99106.34;5039996;28;1354;-49
2021/03/17 09:09:58;;;;;;;;;;;;;;;20.19;35.96;99107.00;5058214;28;1963;-48
2021/03/17 09:12:24;;;;;;;;;;;;;;;19.94;36.48;99106.88;5069462;28;1124;-47
2021/03/17 09:14:50;;;;;;;;;;;;;;;19.69;36.68;99110.63;5078102;28;794;-49
2021/03/17 09:17:25;;;;;;;;;;;;;;;19.26;37.50;99118.78;5067706;28;899;-51
2021/03/17 09:19:57;;;;;;;;;;;;;;;19.12;38.05;99112.69;5057758;28;895;-46
2021/03/17 09:22:36;;;;;;;;;;;;;;;19.93;36.39;99115.47;5063540;28;823;-62
2021/03/17 09:25:16;;;;;;;;;;;;;;;20.24;35.49;99120.56;5077939;28;747;-49
2021/03/17 09:27:45;;;;;;;;;;;;;;;20.05;36.09;99126.59;5077551;28;739;-62
2021/03/17 09:30:11;;;;;;;;;;;;;;;19.77;36.67;99132.59;5077426;28;1973;-44
2021/03/17 09:32:37;;;;;;;;;;;;;;;19.06;38.06;99125.06;5066878;28;1098;-45
2021/03/17 09:35:02;;;;;;;;;;;;;;;19.53;37.28;99115.88;5057271;28;748;-47
2021/03/17 09:37:28;;;;;;;;;;;;;;;20.39;35.33;99127.41;5057815;28;911;-45
2021/03/17 09:39:54;;;;;;;;;;;;;;;19.96;36.25;99125.84;5056232;28;821;-46
2021/03/17 09:42:19;;;;;;;;;;;;;;;19.99;36.27;99130.69;5055970;28;824;-49
2021/03/17 09:44:45;;;;;;;;;;;;;;;19.49;36.95;99135.84;5057216;28;744;-49
2021/03/17 09:47:13;;;;;;;;;;;;;;;19.18;37.94;99135.38;5057508;28;1045;-45
2021/03/17 09:49:38;;;;;;;;;;;;;;;20.13;35.77;99136.75;5057038;28;1902;-48
2021/03/17 09:52:04;;;;;;;;;;;;;;;20.12;35.95;99132.38;5057214;28;720;-61
2021/03/17 09:54:30;;;;;;;;;;;;;;;20.03;36.03;99139.91;5057309;28;763;-45
2021/03/17 09:56:59;;;;;;;;;;;;;;;19.67;36.82;99133.81;5056775;28;791;-46
2021/03/17 09:59:31;;;;;;;;;;;;;;;19.22;37.51;99137.13;5057126;28;788;-49
2021/03/17 10:02:00;;;;;;;;;;;;;;;19.03;37.95;99136.72;5060807;28;963;-52
2021/03/17 10:04:27;;;;;;;;;;;;;;;19.95;36.20;99138.00;5076911;28;767;-46
2021/03/17 10:06:53;;;;;;;;;;;;;;;20.18;35.54;99147.56;5076736;28;767;-46
2021/03/17 10:09:19;;;;;;;;;;;;;;;19.91;36.05;99148.09;5076575;28;1968;-46
2021/03/17 10:11:44;;;;;;;;;;;;;;;19.65;36.66;99141.59;5076429;28;819;-47
2021/03/17 10:14:11;;;;;;;;;;;;;;;19.20;37.79;99149.63;5059086;28;876;-46
2021/03/17 10:16:36;;;;;;;;;;;;;;;19.33;37.31;99162.38;5075856;28;1033;-44
2021/03/17 10:19:02;;;;;;;;;;;;;;;19.70;36.90;99162.66;5076284;28;812;-50
2021/03/17 10:21:27;;;;;;;;;;;;;;;19.71;36.47;99161.50;5076690;28;823;-46
2021/03/17 10:23:52;;;;;;;;;;;;;;;19.69;36.89;99163.00;5076788;28;843;-62
2021/03/17 10:26:18;;;;;;;;;;;;;;;19.88;36.23;99159.81;5075680;28;783;-46
2021/03/17 10:28:43;;;;;;;;;;;;;;;19.90;36.17;99163.06;5077067;28;800;-46
2021/03/17 10:31:09;;;;;;;;;;;;;;;19.95;36.35;99168.34;5076489;28;1913;-48
2021/03/17 10:33:34;;;;;;;;;;;;;;;19.93;36.10;99163.19;5057226;28;1100;-45
2021/03/17 10:36:00;;;;;;;;;;;;;;;19.97;36.05;99155.06;5056623;28;859;-48
2021/03/17 10:38:25;;;;;;;;;;;;;;;20.07;35.85;99156.59;5038835;28;760;-45
2021/03/17 10:40:51;;;;;;;;;;;;;;;20.06;35.88;99166.00;5055910;28;502;-47
2021/03/17 10:43:18;;;;;;;;;;;;;;;19.93;36.00;99174.22;5056458;28;799;-45
2021/03/17 10:45:53;;;;;;;;;;;;;;;19.99;36.01;99172.06;5056448;28;803;-45
2021/03/17 10:48:22;;;;;;;;;;;;;;;20.04;35.79;99180.16;5056049;28;1018;-55
2021/03/17 10:50:48;;;;;;;;;;;;;;;20.06;35.89;99188.09;5056278;28;1909;-62
2021/03/17 10:53:14;;;;;;;;;;;;;;;20.08;35.70;99180.28;5056732;28;768;-49
2021/03/17 10:55:39;;;;;;;;;;;;;;;20.08;35.92;99186.59;5055688;28;799;-46
2021/03/17 10:58:17;;;;;;;;;;;;;;;20.17;35.62;99184.59;5039070;28;1332;-47
2021/03/17 11:00:44;;;;;;;;;;;;;;;20.12;35.81;99171.00;5057458;28;771;-60
2021/03/17 11:03:21;;;;;;;;;;;;;;;20.17;35.56;99184.59;5051663;28;1038;-59
2021/03/17 11:05:47;;;;;;;;;;;;;;;20.17;35.65;99176.31;5076546;28;835;-49
2021/03/17 11:08:12;;;;;;;;;;;;;;;20.21;35.67;99183.94;5058543;28;765;-47
2021/03/17 11:10:41;;;;;;;;;;;;;;;20.30;35.34;99177.19;5075681;28;1917;-56
2021/03/17 11:13:10;;;;;;;;;;;;;;;20.20;35.74;99176.78;5076283;28;818;-49
2021/03/17 11:15:36;;;;;;;;;;;;;;;20.17;35.70;99175.50;5076042;28;840;-49
2021/03/17 11:18:02;;;;;;;;;;;;;;;20.29;35.32;99177.53;5075042;28;1003;-48
2021/03/17 11:20:27;;;;;;;;;;;;;;;20.16;35.57;99182.97;5076205;28;788;-50
2021/03/17 11:22:53;;;;;;;;;;;;;;;20.12;35.62;99190.31;5075899;28;776;-47
2021/03/17 11:25:24;;;;;;;;;;;;;;;19.83;36.24;99197.47;5075756;28;751;-45
2021/03/17 11:27:50;;;;;;;;;;;;;;;20.06;35.80;99194.41;5076192;28;779;-45
2021/03/17 11:30:16;;;;;;;;;;;;;;;20.11;35.67;99194.22;5075972;28;1922;-45
2021/03/17 11:32:41;;;;;;;;;;;;;;;20.21;35.67;99192.22;5074694;28;1005;-46
2021/03/17 11:35:07;;;;;;;;;;;;;;;20.28;35.49;99189.72;5075993;28;839;-46
2021/03/17 11:37:32;;;;;;;;;;;;;;;20.31;35.30;99191.78;5076181;28;1014;-47
2021/03/17 11:39:58;;;;;;;;;;;;;;;20.37;35.15;99203.44;5079475;28;780;-46
2021/03/17 11:42:24;;;;;;;;;;;;;;;20.21;35.52;99194.97;5080076;28;763;-58
2021/03/17 11:44:49;;;;;;;;;;;;;;;20.24;35.38;99208.09;5079547;28;784;-47
2021/03/17 11:47:15;;;;;;;;;;;;;;;20.21;35.78;99211.53;5078755;28;962;-47
2021/03/17 11:49:40;;;;;;;;;;;;;;;20.16;35.53;99205.06;5061314;28;1918;-51
2021/03/17 11:52:06;;;;;;;;;;;;;;;20.24;35.37;99206.13;5079453;28;937;-47
2021/03/17 11:54:32;;;;;;;;;;;;;;;20.28;35.62;99212.59;5079882;28;788;-44
2021/03/17 11:56:57;;;;;;;;;;;;;;;20.21;35.51;99206.00;5079130;28;811;-44
2021/03/17 11:59:23;;;;;;;;;;;;;;;20.18;35.61;99202.75;5079430;28;824;-49
2021/03/17 12:01:48;;;;;;;;;;;;;;;20.28;35.56;99211.78;5078493;28;1013;-48
2021/03/17 12:04:16;;;;;;;;;;;;;;;20.25;35.45;99206.94;5079246;28;815;-49
2021/03/17 12:06:42;;;;;;;;;;;;;;;20.22;35.39;99208.44;5079435;28;791;-48
2021/03/17 12:09:07;;;;;;;;;;;;;;;20.22;35.46;99210.38;5079350;28;794;-48
2021/03/17 12:11:33;;;;;;;;;;;;;;;20.25;35.38;99213.28;5078811;28;1905;-51
2021/03/17 12:13:59;;;;;;;;;;;;;;;20.24;35.34;99225.44;5061446;28;755;-49
2021/03/17 12:16:24;;;;;;;;;;;;;;;20.35;35.32;99220.34;5078899;28;1009;-53
2021/03/17 12:18:50;;;;;;;;;;;;;;;20.37;35.14;99217.22;5058461;28;959;-58
2021/03/17 12:21:15;;;;;;;;;;;;;;;20.37;35.08;99220.81;5058913;28;813;-49
2021/03/17 12:23:41;;;;;;;;;;;;;;;20.45;34.95;99232.94;5059087;28;740;-48
2021/03/17 12:26:06;;;;;;;;;;;;;;;20.31;35.40;99234.03;5058604;28;810;-48
2021/03/17 12:28:32;;;;;;;;;;;;;;;20.34;35.33;99221.47;5066668;28;873;-49
2021/03/17 12:30:57;;;;;;;;;;;;;;;20.37;35.29;99223.59;5098337;28;1886;-47
2021/03/17 12:33:23;;;;;;;;;;;;;;;20.38;35.02;99233.47;5080711;28;1087;-49
2021/03/17 12:35:49;;;;;;;;;;;;;;;20.36;35.33;99230.25;5078688;28;771;-47
2021/03/17 12:38:14;;;;;;;;;;;;;;;20.54;34.75;99235.59;5078683;28;815;-50
2021/03/17 12:40:40;;;;;;;;;;;;;;;20.46;35.17;99235.34;5078130;28;763;-49
2021/03/17 12:43:06;;;;;;;;;;;;;;;20.49;34.86;99240.19;5078567;28;791;-46
2021/03/17 12:45:32;;;;;;;;;;;;;;;20.40;35.26;99247.75;5078148;28;927;-48
2021/03/17 12:47:58;;;;;;;;;;;;;;;20.25;35.23;99256.63;5064787;28;963;-46
2021/03/17 12:50:24;;;;;;;;;;;;;;;20.37;35.09;99248.44;5057954;28;1981;-51
2021/03/17 12:52:49;;;;;;;;;;;;;;;20.33;35.14;99264.03;5058463;28;748;-49
2021/03/17 12:55:15;;;;;;;;;;;;;;;20.30;35.15;99264.69;5057883;28;791;-52
2021/03/17 12:57:41;;;;;;;;;;;;;;;20.37;35.07;99259.47;5058595;28;767;-57
2021/03/17 13:00:07;;;;;;;;;;;;;;;20.32;35.23;99267.94;5057866;28;880;-48
2021/03/17 13:02:33;;;;;;;;;;;;;;;20.29;35.29;99268.63;5065484;28;1009;-49
2021/03/17 13:04:58;;;;;;;;;;;;;;;20.42;35.21;99267.53;5078273;28;811;-47
2021/03/17 13:07:24;;;;;;;;;;;;;;;20.35;35.12;99276.34;5078213;28;744;-47
2021/03/17 13:09:50;;;;;;;;;;;;;;;20.34;35.08;99274.75;5077410;28;1985;-46